Time;durP1;ratioP1;P1;durP2;ratioP2;P2;SDS_P1;SDS_P2;PMS_P1;PMS_P2;Temp;Humidity;BMP_temperature;BMP_pressure;BME280_temperature;BME280_humidity;BME280_pressure;Samples;Min_cycle;Max_cycle;Signal;HPM_P1;HPM_P2
2021/12/29 00:00:34;;;;;;;1.53;1.43;;;18.10;58.00;18.70;99202.00;;;;5046497;28;20164;-40
2021/12/29 00:03:00;;;;;;;1.60;1.50;;;18.10;58.00;18.70;99200.00;;;;5046735;28;20173;-45
2021/12/29 00:05:26;;;;;;;1.83;1.50;;;18.10;58.00;18.70;99207.00;;;;5046435;28;20761;-39
2021/12/29 00:07:52;;;;;;;2.03;1.50;;;18.00;58.10;18.70;99192.00;;;;5046205;28;20575;-39
2021/12/29 00:10:18;;;;;;;1.63;1.53;;;18.00;58.10;18.70;99200.00;;;;5045828;28;20175;-39
2021/12/29 00:12:48;;;;;;;1.53;1.43;;;18.00;58.20;18.70;99200.00;;;;5044070;28;20186;-40
2021/12/29 00:15:16;;;;;;;2.77;1.60;;;18.00;58.30;18.70;99207.00;;;;5033444;28;20210;-39
2021/12/29 00:17:44;;;;;;;1.60;1.50;;;17.90;58.00;18.80;99223.00;;;;5026533;28;20202;-40
2021/12/29 00:20:10;;;;;;;1.60;1.50;;;17.80;58.30;18.70;99219.00;;;;5026292;28;20258;-39
2021/12/29 00:22:36;;;;;;;1.50;1.40;;;17.80;58.50;18.70;99214.00;;;;5026829;28;20255;-39
2021/12/29 00:25:03;;;;;;;2.00;1.70;;;17.80;58.30;18.70;99215.00;;;;5026059;28;20335;-39
2021/12/29 00:27:28;;;;;;;1.63;1.40;;;17.80;58.50;18.70;99228.00;;;;5026356;28;20617;-39
2021/12/29 00:29:54;;;;;;;2.33;1.77;;;17.80;58.20;18.70;99228.00;;;;5025987;28;20178;-38
2021/12/29 00:32:20;;;;;;;1.93;1.73;;;17.70;58.40;18.70;99238.00;;;;5026452;28;20183;-38
2021/12/29 00:34:45;;;;;;;2.50;1.40;;;17.80;58.40;18.70;99244.00;;;;5025997;28;20559;-38
2021/12/29 00:37:11;;;;;;;1.60;1.50;;;17.70;58.20;18.70;99244.00;;;;5026081;28;20179;-39
2021/12/29 00:39:37;;;;;;;2.03;1.50;;;17.60;58.30;18.70;99244.00;;;;5026059;28;20172;-40
2021/12/29 00:42:03;;;;;;;1.90;1.60;;;17.60;58.50;18.60;99251.00;;;;5026160;28;20808;-38
2021/12/29 00:44:30;;;;;;;1.53;1.43;;;17.60;58.50;18.60;99247.00;;;;5025914;28;20201;-39
2021/12/29 00:46:56;;;;;;;1.60;1.50;;;17.60;58.60;18.60;99263.00;;;;5026163;28;20203;-40
2021/12/29 00:49:29;;;;;;;1.43;1.33;;;17.50;58.50;18.60;99270.00;;;;5025830;28;20175;-38
2021/12/29 00:51:55;;;;;;;1.60;1.50;;;17.50;58.40;18.30;99279.00;;;;5026367;28;20164;-38
2021/12/29 00:54:21;;;;;;;1.50;1.40;;;17.40;58.60;18.60;99295.00;;;;5026094;28;20721;-40
2021/12/29 00:56:47;;;;;;;1.63;1.53;;;17.50;58.80;18.60;99308.00;;;;5025955;28;20843;-39
2021/12/29 00:59:13;;;;;;;1.60;1.50;;;17.40;58.50;18.60;99318.00;;;;5027804;28;20254;-40
2021/12/29 01:01:39;;;;;;;1.70;1.60;;;17.50;58.70;18.50;99332.00;;;;5026101;28;20756;-39
2021/12/29 01:04:05;;;;;;;1.60;1.50;;;17.40;58.60;18.50;99322.00;;;;5026026;28;20301;-40
2021/12/29 01:06:30;;;;;;;1.70;1.60;;;17.40;58.60;18.50;99321.00;;;;5025734;28;20326;-39
2021/12/29 01:08:56;;;;;;;1.67;1.57;;;17.30;58.60;18.50;99322.00;;;;5024851;28;20167;-39
2021/12/29 01:11:22;;;;;;;1.70;1.60;;;17.30;58.70;18.50;99327.00;;;;5025537;28;20571;-39
2021/12/29 01:13:49;;;;;;;1.73;1.60;;;17.30;58.60;18.50;99336.00;;;;5025525;28;20214;-39
2021/12/29 01:16:36;;;;;;;1.97;1.60;;;17.30;58.80;18.50;99344.00;;;;5025897;28;20248;-39
2021/12/29 01:19:18;;;;;;;1.43;1.33;;;17.30;58.80;18.40;99357.00;;;;5025333;28;20394;-39
2021/12/29 01:21:47;;;;;;;1.50;1.40;;;17.30;58.80;18.40;99358.00;;;;5025398;28;20174;-40
2021/12/29 01:24:13;;;;;;;1.50;1.40;;;17.20;58.80;18.40;99363.00;;;;5025917;28;20183;-39
2021/12/29 01:26:41;;;;;;;1.43;1.40;;;17.20;58.90;18.40;99361.00;;;;5026979;28;20210;-39
2021/12/29 01:29:07;;;;;;;1.67;1.57;;;17.20;58.70;18.40;99373.00;;;;5028993;28;20175;-39
2021/12/29 01:31:33;;;;;;;1.80;1.70;;;17.20;58.80;18.40;99380.00;;;;5026223;28;20173;-39
2021/12/29 01:33:59;;;;;;;1.80;1.70;;;17.20;58.90;18.40;99382.00;;;;5025707;28;20203;-39
2021/12/29 01:36:26;;;;;;;1.60;1.50;;;17.10;58.90;18.40;99393.00;;;;5025761;28;20205;-39
2021/12/29 01:38:51;;;;;;;1.80;1.70;;;17.10;59.00;18.30;99393.00;;;;5027000;28;20167;-39
2021/12/29 01:41:17;;;;;;;1.90;1.80;;;17.10;59.00;18.30;99401.00;;;;5027533;28;20174;-38
2021/12/29 01:43:43;;;;;;;1.70;1.60;;;17.10;58.90;18.30;99404.00;;;;5026038;28;20167;-38
2021/12/29 01:46:08;;;;;;;1.63;1.53;;;17.10;58.90;18.30;99403.00;;;;5024006;28;20218;-39
2021/12/29 01:48:34;;;;;;;1.97;1.70;;;17.10;59.00;18.30;99417.00;;;;5024208;28;20167;-38
2021/12/29 01:51:00;;;;;;;1.90;1.80;;;17.10;59.20;18.30;99427.00;;;;5025453;28;20733;-42
2021/12/29 01:53:30;;;;;;;1.70;1.60;;;17.10;59.10;18.30;99434.00;;;;5025398;28;20656;-39
2021/12/29 01:55:55;;;;;;;1.70;1.60;;;17.10;59.10;18.20;99440.00;;;;5025452;28;20220;-46
2021/12/29 01:58:21;;;;;;;1.70;1.60;;;17.10;58.90;18.20;99446.00;;;;5024971;28;20656;-39
2021/12/29 02:00:47;;;;;;;1.80;1.70;;;17.00;59.10;18.20;99442.00;;;;5025481;28;20225;-39
2021/12/29 02:03:13;;;;;;;1.90;1.80;;;17.00;58.90;18.20;99450.00;;;;5025242;28;20175;-39
2021/12/29 02:05:39;;;;;;;1.80;1.70;;;17.00;59.10;18.20;99450.00;;;;5032878;28;20203;-39
2021/12/29 02:08:05;;;;;;;1.40;1.33;;;17.00;59.20;18.20;99456.00;;;;5026902;28;20233;-39
2021/12/29 02:10:36;;;;;;;1.70;1.60;;;17.00;59.20;18.20;99465.00;;;;5025391;28;20552;-38
2021/12/29 02:13:02;;;;;;;1.80;1.70;;;17.00;59.10;18.10;99476.00;;;;5025312;28;20226;-39
2021/12/29 02:15:27;;;;;;;1.60;1.50;;;16.90;59.10;18.10;99486.00;;;;5024986;28;20233;-38
2021/12/29 02:17:53;;;;;;;1.80;1.70;;;16.90;59.20;18.10;99482.00;;;;5024964;28;20176;-39
2021/12/29 02:20:20;;;;;;;1.80;1.70;;;16.80;59.40;18.10;99472.00;;;;5025275;28;20168;-39
2021/12/29 02:22:50;;;;;;;1.57;1.47;;;16.80;59.60;18.10;99462.00;;;;5028304;28;20186;-39
2021/12/29 02:27:43;;;;;;;1.70;1.60;;;16.80;59.30;18.10;99487.00;;;;5028826;28;20190;-40
2021/12/29 02:30:09;;;;;;;1.90;1.70;;;16.80;59.90;18.10;99482.00;;;;5027233;28;20186;-39
2021/12/29 02:32:34;;;;;;;1.70;1.60;;;16.80;59.50;18.00;99490.00;;;;5028488;28;20187;-39
2021/12/29 02:35:00;;;;;;;1.70;1.60;;;16.80;59.40;18.00;99493.00;;;;5028292;28;20202;-39
2021/12/29 02:37:27;;;;;;;1.50;1.40;;;16.80;59.50;18.00;99487.00;;;;5028079;28;20814;-39
2021/12/29 02:39:53;;;;;;;1.50;1.50;;;16.80;59.40;18.00;99482.00;;;;5028590;28;20183;-40
2021/12/29 02:42:20;;;;;;;1.43;1.40;;;16.80;59.30;18.00;99489.00;;;;5028739;28;20170;-39
2021/12/29 02:44:47;;;;;;;1.70;1.60;;;16.80;59.20;18.00;99504.00;;;;5028307;28;20233;-39
2021/12/29 02:47:12;;;;;;;1.70;1.57;;;16.80;59.30;18.00;99512.00;;;;5028254;28;20194;-40
2021/12/29 02:49:38;;;;;;;1.60;1.50;;;16.80;59.40;18.00;99523.00;;;;5028258;28;20190;-38
2021/12/29 02:52:05;;;;;;;1.63;1.53;;;16.80;59.50;18.00;99523.00;;;;5027722;28;20845;-39
2021/12/29 02:54:30;;;;;;;1.70;1.60;;;16.80;59.40;17.90;99522.00;;;;5028189;28;20195;-39
2021/12/29 02:56:56;;;;;;;1.60;1.50;;;16.80;59.40;17.90;99530.00;;;;5028065;28;20597;-40
2021/12/29 02:59:23;;;;;;;1.53;1.43;;;16.80;59.40;17.90;99529.00;;;;5027342;28;20178;-39
2021/12/29 03:01:49;;;;;;;1.70;1.60;;;16.70;59.50;17.90;99547.00;;;;5027819;28;20193;-38
2021/12/29 03:04:14;;;;;;;1.80;1.70;;;16.70;59.60;17.90;99550.00;;;;5027884;28;20187;-38
2021/12/29 03:06:40;;;;;;;1.70;1.60;;;16.70;59.70;17.90;99546.00;;;;5027972;28;20206;-38
2021/12/29 03:09:08;;;;;;;1.60;1.50;;;16.70;59.60;17.90;99537.00;;;;5037936;28;20179;-39
2021/12/29 03:11:33;;;;;;;1.60;1.50;;;16.60;59.60;17.90;99556.00;;;;5049434;28;20575;-39
2021/12/29 03:13:59;;;;;;;1.70;1.60;;;16.60;59.50;17.90;99562.00;;;;5031641;28;20253;-39
2021/12/29 03:16:25;;;;;;;1.60;1.50;;;16.60;59.70;17.90;99552.00;;;;5027611;28;20245;-39
2021/12/29 03:18:50;;;;;;;1.70;1.60;;;16.70;59.60;17.80;99556.00;;;;5027243;28;20618;-39
2021/12/29 03:21:16;;;;;;;1.70;1.60;;;16.70;59.50;17.80;99561.00;;;;5027678;28;20643;-39
2021/12/29 03:23:42;;;;;;;1.70;1.60;;;16.70;59.50;17.80;99553.00;;;;5027729;28;20178;-39
2021/12/29 03:26:08;;;;;;;1.30;1.23;;;16.70;59.40;17.80;99563.00;;;;5027599;28;20195;-39
2021/12/29 03:28:34;;;;;;;1.57;1.47;;;16.60;59.60;17.80;99565.00;;;;5027074;28;20864;-39
2021/12/29 03:30:59;;;;;;;1.63;1.53;;;16.60;59.40;17.80;99557.00;;;;5039028;28;20335;-40
2021/12/29 03:33:28;;;;;;;1.70;1.60;;;16.60;59.40;17.80;99563.00;;;;5047625;28;20174;-39
2021/12/29 03:36:01;;;;;;;1.40;1.30;;;16.70;59.50;17.80;99564.00;;;;5050520;28;20751;-39
2021/12/29 03:38:28;;;;;;;1.70;1.60;;;16.60;59.40;17.80;99574.00;;;;5047142;28;20154;-38
2021/12/29 03:40:54;;;;;;;1.80;1.70;;;16.50;59.40;17.80;99502.00;;;;5047382;28;20162;-39
2021/12/29 03:43:20;;;;;;;1.47;1.37;;;16.60;59.60;17.80;99580.00;;;;5047239;28;20767;-39
2021/12/29 03:45:47;;;;;;;1.70;1.60;;;16.50;59.60;17.80;99568.00;;;;5047310;28;20274;-40
2021/12/29 03:48:13;;;;;;;1.50;1.50;;;16.60;59.90;17.80;99591.00;;;;5046478;28;20159;-38
2021/12/29 03:50:39;;;;;;;1.30;1.30;;;16.60;59.70;17.70;99596.00;;;;5046838;28;20167;-38
2021/12/29 03:53:05;;;;;;;1.50;1.43;;;16.50;59.60;17.80;99597.00;;;;5046968;28;20257;-38
2021/12/29 03:55:31;;;;;;;1.43;1.33;;;16.50;59.70;17.70;99606.00;;;;5046755;28;20282;-39
2021/12/29 03:57:57;;;;;;;1.70;1.60;;;16.50;59.70;17.70;99618.00;;;;5046447;28;20171;-39
2021/12/29 04:00:22;;;;;;;1.60;1.50;;;16.50;59.70;17.70;99609.00;;;;5046791;28;20163;-39
2021/12/29 04:02:48;;;;;;;1.70;1.60;;;16.50;59.60;17.70;99622.00;;;;5045347;28;20811;-39
2021/12/29 04:05:17;;;;;;;1.70;1.60;;;16.50;59.70;17.70;99621.00;;;;5046810;28;20275;-39
2021/12/29 04:07:43;;;;;;;1.80;1.70;;;16.50;59.60;17.70;99616.00;;;;5046349;28;20166;-39
2021/12/29 04:10:09;;;;;;;1.47;1.37;;;16.50;59.60;17.70;99629.00;;;;5046415;28;20171;-39
2021/12/29 04:12:36;;;;;;;1.70;1.60;;;16.50;59.70;17.70;99637.00;;;;5046600;28;20227;-39
2021/12/29 04:15:02;;;;;;;1.77;1.67;;;16.50;59.60;17.60;99633.00;;;;5046728;28;20223;-41
2021/12/29 04:17:36;;;;;;;1.60;1.50;;;16.50;59.60;17.60;99642.00;;;;5061744;28;20265;-38
2021/12/29 04:22:52;;;;;;;1.70;1.60;;;16.50;59.70;17.60;99645.00;;;;5046473;28;20833;-39
2021/12/29 04:25:23;;;;;;;1.70;1.60;;;16.50;59.70;17.60;99646.00;;;;5046336;28;20191;-39
2021/12/29 04:27:53;;;;;;;1.80;1.70;;;16.40;59.60;17.60;99647.00;;;;5046538;28;20155;-40
2021/12/29 04:30:19;;;;;;;2.37;1.60;;;16.40;60.10;17.60;99658.00;;;;5035293;28;20174;-38
2021/12/29 04:32:45;;;;;;;4.83;1.70;;;16.40;60.10;17.60;99654.00;;;;5029090;28;20655;-38
2021/12/29 04:35:11;;;;;;;3.27;1.60;;;16.40;60.20;17.60;99669.00;;;;5026005;28;20205;-39
2021/12/29 04:37:37;;;;;;;1.70;1.60;;;16.40;60.10;17.60;99680.00;;;;5026416;28;20302;-39
2021/12/29 04:40:05;;;;;;;1.73;1.63;;;16.40;60.20;17.60;99678.00;;;;5025819;28;20171;-40
2021/12/29 04:42:30;;;;;;;3.07;1.67;;;16.40;59.90;17.60;99676.00;;;;5026360;28;20174;-39
2021/12/29 04:44:56;;;;;;;2.67;1.73;;;16.40;59.90;17.40;99690.00;;;;5025547;28;20159;-39
2021/12/29 04:47:28;;;;;;;1.70;1.50;;;16.40;59.80;17.50;99685.00;;;;5025815;28;20176;-39
2021/12/29 04:49:54;;;;;;;2.00;1.40;;;16.40;59.70;17.50;99692.00;;;;5025453;28;20170;-39
2021/12/29 04:52:19;;;;;;;2.07;1.73;;;16.40;59.60;17.50;99693.00;;;;5025627;28;20305;-38
2021/12/29 04:54:45;;;;;;;2.83;1.50;;;16.40;59.50;17.50;99694.00;;;;5025739;28;20629;-39
2021/12/29 04:57:11;;;;;;;1.50;1.40;;;16.40;59.60;17.50;99703.00;;;;5025746;28;20195;-39
2021/12/29 04:59:36;;;;;;;1.67;1.40;;;16.30;59.40;17.50;99700.00;;;;5025747;28;20171;-39
2021/12/29 05:02:03;;;;;;;1.50;1.40;;;16.40;59.70;17.50;99700.00;;;;5025668;28;20899;-39
2021/12/29 05:04:32;;;;;;;1.50;1.40;;;16.30;59.50;17.50;99707.00;;;;5025111;28;20225;-39
2021/12/29 05:09:42;;;;;;;1.73;1.60;;;16.40;59.60;17.50;99701.00;;;;5025071;28;20173;-38
2021/12/29 05:12:08;;;;;;;1.57;1.47;;;16.30;59.60;17.50;99699.00;;;;5025606;28;20318;-39
2021/12/29 05:14:34;;;;;;;3.20;1.40;;;16.30;59.60;17.50;99715.00;;;;5026896;28;20605;-39
2021/12/29 05:17:00;;;;;;;3.80;1.57;;;16.30;59.80;17.50;99721.00;;;;5028079;28;20702;-38
2021/12/29 05:19:26;;;;;;;1.60;1.50;;;16.20;59.90;17.50;99723.00;;;;5025787;28;20203;-39
2021/12/29 05:21:52;;;;;;;2.50;1.50;;;16.20;59.90;17.40;99724.00;;;;5025800;28;20186;-39
2021/12/29 05:24:17;;;;;;;1.77;1.50;;;16.20;59.90;17.40;99726.00;;;;5025906;28;20170;-39
2021/12/29 05:26:43;;;;;;;2.97;1.60;;;16.30;60.00;17.40;99729.00;;;;5025848;28;20663;-39
2021/12/29 05:29:09;;;;;;;1.77;1.50;;;16.20;60.00;17.40;99733.00;;;;5025256;28;20178;-39
2021/12/29 05:31:34;;;;;;;2.37;1.50;;;16.20;59.90;17.40;99727.00;;;;5025342;28;20261;-39
2021/12/29 05:34:00;;;;;;;1.63;1.53;;;16.20;59.90;17.40;99745.00;;;;5025670;28;20687;-38
2021/12/29 05:36:26;;;;;;;1.40;1.30;;;16.20;59.90;17.40;99734.00;;;;5025646;28;20286;-39
2021/12/29 05:38:56;;;;;;;1.30;1.20;;;16.20;59.90;17.40;99755.00;;;;5025433;28;20827;-39
2021/12/29 05:41:22;;;;;;;1.70;1.60;;;16.10;59.80;17.40;99759.00;;;;5025695;28;20332;-39
2021/12/29 05:43:47;;;;;;;1.57;1.47;;;16.20;59.90;17.40;99756.00;;;;5028318;28;20167;-40
2021/12/29 05:46:13;;;;;;;1.50;1.40;;;16.20;59.90;17.40;99762.00;;;;5037358;28;20195;-39
2021/12/29 05:48:39;;;;;;;2.50;1.37;;;16.20;60.00;17.30;99767.00;;;;5026568;28;20660;-39
2021/12/29 05:51:05;;;;;;;1.50;1.40;;;16.20;60.00;17.40;99766.00;;;;5025270;28;20171;-40
2021/12/29 05:53:30;;;;;;;1.60;1.50;;;16.10;59.80;17.30;99764.00;;;;5025197;28;20171;-40
2021/12/29 05:55:56;;;;;;;2.33;1.70;;;16.10;59.80;17.30;99765.00;;;;5025667;28;20210;-39
2021/12/29 05:58:22;;;;;;;1.70;1.60;;;16.10;59.90;17.30;99755.00;;;;5030047;28;20175;-39
2021/12/29 06:00:47;;;;;;;1.97;1.50;;;16.10;59.90;17.30;99762.00;;;;5030894;28;20178;-39
2021/12/29 06:03:14;;;;;;;1.50;1.40;;;16.20;59.80;17.30;99759.00;;;;5030772;28;20247;-39
2021/12/29 06:05:40;;;;;;;1.60;1.30;;;16.10;60.00;17.30;99756.00;;;;5029342;28;20194;-39
2021/12/29 06:08:05;;;;;;;2.87;1.47;;;16.10;60.10;17.30;99760.00;;;;5029116;28;20229;-39
2021/12/29 06:10:31;;;;;;;1.70;1.60;;;16.10;60.50;17.30;99770.00;;;;5031628;28;20167;-40
2021/12/29 06:12:57;;;;;;;1.50;1.40;;;16.10;60.00;17.30;99777.00;;;;5048369;28;20228;-41
2021/12/29 06:15:23;;;;;;;1.53;1.43;;;16.10;59.80;17.30;99788.00;;;;5049016;28;20289;-38
2021/12/29 06:17:48;;;;;;;1.50;1.40;;;16.10;60.00;17.30;99772.00;;;;5048780;28;20205;-39
2021/12/29 06:20:14;;;;;;;1.50;1.40;;;16.10;60.30;17.30;99786.00;;;;5049104;28;20167;-38
2021/12/29 06:22:41;;;;;;;2.20;1.50;;;16.10;60.00;17.30;99788.00;;;;5048860;28;20194;-39
2021/12/29 06:25:10;;;;;;;2.27;1.40;;;16.10;59.80;17.20;99781.00;;;;5052445;28;20174;-39
2021/12/29 06:27:35;;;;;;;1.17;1.17;;;16.10;59.90;17.20;99776.00;;;;5060638;28;20182;-39
2021/12/29 06:30:01;;;;;;;1.47;1.37;;;16.00;60.00;17.20;99796.00;;;;5054937;28;20174;-39
2021/12/29 06:32:27;;;;;;;1.47;1.37;;;16.10;59.80;17.20;99781.00;;;;5040282;28;20189;-38
2021/12/29 06:34:53;;;;;;;1.40;1.30;;;16.00;59.80;17.20;99794.00;;;;5028866;28;20194;-38
2021/12/29 06:37:18;;;;;;;1.60;1.50;;;16.00;59.80;17.20;99788.00;;;;5028080;28;20194;-38
2021/12/29 06:39:45;;;;;;;2.60;1.40;;;16.10;59.80;17.20;99790.00;;;;5044129;28;20601;-38
2021/12/29 06:42:11;;;;;;;1.60;1.47;;;16.00;60.10;17.20;99795.00;;;;5047850;28;20757;-39
2021/12/29 06:44:37;;;;;;;1.40;1.30;;;16.00;60.00;17.20;99795.00;;;;5048404;28;20170;-38
2021/12/29 06:47:03;;;;;;;1.43;1.33;;;16.00;59.90;17.20;99804.00;;;;5048491;28;20557;-39
2021/12/29 06:49:29;;;;;;;1.27;1.23;;;16.00;59.80;17.20;99796.00;;;;5048099;28;20655;-38
2021/12/29 06:51:54;;;;;;;1.30;1.30;;;16.00;59.80;17.20;99810.00;;;;5048678;28;20185;-38
2021/12/29 06:54:20;;;;;;;1.50;1.40;;;16.00;59.80;17.10;99803.00;;;;5048291;28;20194;-38
2021/12/29 06:56:46;;;;;;;1.40;1.30;;;16.00;59.80;17.10;99811.00;;;;5047995;28;20281;-39
2021/12/29 06:59:12;;;;;;;1.50;1.40;;;16.00;59.80;17.20;99820.00;;;;5048083;28;20178;-38
2021/12/29 07:01:37;;;;;;;1.50;1.40;;;16.00;59.80;17.10;99830.00;;;;5053756;28;20178;-39
2021/12/29 07:04:03;;;;;;;1.40;1.30;;;16.00;59.70;17.10;99839.00;;;;5050682;28;20178;-41
2021/12/29 07:06:29;;;;;;;2.33;1.37;;;16.00;59.80;17.10;99834.00;;;;5048242;28;20190;-39
2021/12/29 07:08:55;;;;;;;1.60;1.50;;;16.00;59.80;17.10;99847.00;;;;5047064;28;20178;-38
2021/12/29 07:11:21;;;;;;;1.60;1.50;;;16.00;59.80;17.10;99843.00;;;;5048130;28;20228;-39
2021/12/29 07:13:46;;;;;;;1.60;1.50;;;15.90;59.70;17.10;99847.00;;;;5048030;28;20186;-38
2021/12/29 07:16:12;;;;;;;1.70;1.60;;;15.90;59.80;17.10;99850.00;;;;5048280;28;20594;-38
2021/12/29 07:18:38;;;;;;;1.30;1.20;;;15.90;59.70;17.10;99853.00;;;;5047333;28;20174;-39
2021/12/29 07:21:04;;;;;;;1.60;1.50;;;15.90;59.70;17.10;99856.00;;;;5047936;28;20170;-38
2021/12/29 07:23:29;;;;;;;1.23;1.20;;;16.00;59.80;17.10;99863.00;;;;5047885;28;20189;-38
2021/12/29 07:25:55;;;;;;;1.50;1.40;;;15.90;59.70;17.10;99862.00;;;;5047774;28;20240;-40
2021/12/29 07:28:21;;;;;;;1.50;1.40;;;15.90;59.70;17.10;99850.00;;;;5047195;28;20166;-38
2021/12/29 07:30:47;;;;;;;1.40;1.40;;;15.90;59.90;17.10;99856.00;;;;5047993;28;20179;-40
2021/12/29 07:33:12;;;;;;;1.60;1.50;;;15.90;59.80;17.10;99859.00;;;;5047705;28;20224;-39
2021/12/29 07:35:38;;;;;;;1.60;1.50;;;15.90;59.70;17.00;99857.00;;;;5047691;28;20214;-40
2021/12/29 07:38:04;;;;;;;1.47;1.37;;;15.90;59.80;17.10;99872.00;;;;5047620;28;20174;-39
2021/12/29 07:40:30;;;;;;;1.47;1.37;;;15.80;59.90;17.00;99881.00;;;;5047422;28;20174;-38
2021/12/29 07:42:55;;;;;;;1.60;1.50;;;15.80;60.00;17.00;99871.00;;;;5047860;28;20174;-40
2021/12/29 07:45:23;;;;;;;1.13;1.13;;;15.80;60.00;17.00;99875.00;;;;5047430;28;20560;-39
2021/12/29 07:47:49;;;;;;;1.37;1.27;;;15.80;60.00;17.00;99863.00;;;;5047353;28;20175;-39
2021/12/29 07:50:16;;;;;;;1.40;1.30;;;15.80;60.10;17.00;99877.00;;;;5047708;28;20236;-39
2021/12/29 07:52:47;;;;;;;1.30;1.20;;;15.80;60.30;17.00;99870.00;;;;5047709;28;20180;-39
2021/12/29 07:55:14;;;;;;;1.50;1.40;;;15.80;60.20;17.00;99882.00;;;;5047155;28;20198;-39
2021/12/29 07:57:40;;;;;;;1.50;1.40;;;15.70;60.00;17.00;99885.00;;;;5047044;28;20687;-39
2021/12/29 08:00:07;;;;;;;1.50;1.40;;;15.80;60.00;17.00;99891.00;;;;5047634;28;20163;-40
2021/12/29 08:02:33;;;;;;;1.40;1.30;;;15.80;60.70;17.00;99889.00;;;;5047455;28;20181;-39
2021/12/29 08:04:58;;;;;;;1.50;1.40;;;15.80;60.20;17.00;99889.00;;;;5029252;28;20263;-39
2021/12/29 08:07:27;;;;;;;1.40;1.30;;;15.70;60.00;17.00;99891.00;;;;5047147;28;20174;-39
2021/12/29 08:09:53;;;;;;;1.37;1.27;;;15.80;60.10;16.90;99894.00;;;;5046313;28;20174;-39
2021/12/29 08:12:19;;;;;;;1.40;1.33;;;15.80;60.10;16.90;99912.00;;;;5047081;28;20679;-39
2021/12/29 08:14:49;;;;;;;1.50;1.30;;;15.80;60.10;16.90;99915.00;;;;5046984;28;20225;-39
2021/12/29 08:17:14;;;;;;;1.50;1.40;;;15.80;60.00;16.90;99911.00;;;;5047234;28;20579;-39
2021/12/29 08:19:41;;;;;;;1.20;1.10;;;15.70;60.20;16.90;99913.00;;;;5052162;28;20173;-39
2021/12/29 08:22:06;;;;;;;1.07;1.07;;;15.80;60.20;16.90;99917.00;;;;5053120;28;20159;-38
2021/12/29 08:24:32;;;;;;;1.60;1.50;;;15.70;60.10;16.90;99923.00;;;;5047554;28;20768;-39
2021/12/29 08:26:58;;;;;;;1.50;1.40;;;15.80;60.10;16.90;99916.00;;;;5046438;28;20197;-40
2021/12/29 08:29:23;;;;;;;1.20;1.20;;;15.70;59.90;16.90;99912.00;;;;5046042;28;20190;-40
2021/12/29 08:31:49;;;;;;;2.00;1.33;;;15.70;59.90;16.90;99921.00;;;;5034389;28;20855;-38
2021/12/29 08:34:15;;;;;;;1.40;1.30;;;15.70;60.70;16.90;99915.00;;;;5026064;28;20190;-39
2021/12/29 08:36:41;;;;;;;1.60;1.40;;;15.80;60.70;16.90;99921.00;;;;5030447;28;20329;-39
2021/12/29 08:39:07;;;;;;;3.63;1.60;;;15.70;60.50;16.90;99925.00;;;;5026037;28;20175;-41
2021/12/29 08:41:33;;;;;;;6.07;1.93;;;15.70;60.90;16.90;99921.00;;;;5026655;28;20167;-39
2021/12/29 08:43:58;;;;;;;3.23;1.60;;;15.70;61.30;16.90;99919.00;;;;5028112;28;20281;-39
2021/12/29 08:46:24;;;;;;;3.23;1.67;;;15.70;60.50;16.90;99924.00;;;;5044876;28;20255;-39
2021/12/29 08:48:50;;;;;;;1.57;1.47;;;15.70;60.90;16.90;99926.00;;;;5045433;28;20710;-39
2021/12/29 08:51:17;;;;;;;3.87;1.87;;;15.70;60.60;16.80;99927.00;;;;5045844;28;20179;-39
2021/12/29 08:53:43;;;;;;;2.27;1.57;;;15.70;60.50;16.80;99926.00;;;;5045092;28;20743;-39
2021/12/29 08:56:09;;;;;;;1.70;1.60;;;15.70;60.60;16.80;99916.00;;;;5045722;28;20229;-38
2021/12/29 08:58:34;;;;;;;1.90;1.50;;;15.80;60.60;16.80;99924.00;;;;5045307;28;20628;-39
2021/12/29 09:01:00;;;;;;;1.80;1.70;;;15.70;60.40;16.80;99928.00;;;;5045520;28;20170;-38
2021/12/29 09:03:26;;;;;;;1.70;1.60;;;15.70;60.20;16.80;99926.00;;;;5045602;28;20773;-39
2021/12/29 09:05:52;;;;;;;1.60;1.50;;;15.80;60.30;16.80;99921.00;;;;5045656;28;20194;-39
2021/12/29 09:08:18;;;;;;;3.70;1.90;;;15.70;60.20;16.80;99926.00;;;;5045499;28;20174;-41
2021/12/29 09:10:44;;;;;;;1.90;1.70;;;15.80;60.30;16.80;99923.00;;;;5045734;28;20170;-39
2021/12/29 09:13:11;;;;;;;1.80;1.70;;;15.70;60.50;16.80;99932.00;;;;5045309;28;20182;-39
2021/12/29 09:15:36;;;;;;;6.57;2.07;;;15.70;60.50;16.80;99934.00;;;;5045628;28;20198;-39
2021/12/29 09:18:02;;;;;;;2.20;1.60;;;15.70;61.00;16.80;99944.00;;;;5030533;28;20190;-39
2021/12/29 09:20:30;;;;;;;5.60;1.73;;;15.70;61.30;16.80;99954.00;;;;5027061;28;20167;-39
2021/12/29 09:23:05;;;;;;;2.00;1.80;;;15.80;61.70;16.90;99950.00;;;;5025633;28;20652;-39
2021/12/29 09:25:31;;;;;;;3.20;1.70;;;15.90;61.70;16.90;99953.00;;;;5034067;28;20190;-39
2021/12/29 09:27:57;;;;;;;2.43;1.60;;;16.20;61.60;17.00;99957.00;;;;5037625;28;20357;-39
2021/12/29 09:30:26;;;;;;;5.83;1.70;;;16.40;61.10;17.10;99958.00;;;;5027491;28;20232;-40
2021/12/29 09:32:51;;;;;;;1.80;1.70;;;16.70;60.90;17.20;99977.00;;;;5029584;28;20254;-39
2021/12/29 09:35:19;;;;;;;1.67;1.40;;;16.90;60.50;17.40;99948.00;;;;5029284;28;20281;-39
2021/12/29 09:37:45;;;;;;;2.00;1.50;;;17.30;60.00;17.60;99960.00;;;;5029673;28;20205;-40
2021/12/29 09:40:11;;;;;;;3.37;1.70;;;17.60;59.40;17.80;99958.00;;;;5029368;28;20262;-39
2021/12/29 09:42:37;;;;;;;2.60;1.70;;;17.80;58.90;17.90;99960.00;;;;5029754;28;20175;-39
2021/12/29 09:45:05;;;;;;;1.50;1.40;;;18.00;58.80;18.10;99958.00;;;;5029462;28;20610;-39
2021/12/29 09:47:32;;;;;;;1.60;1.50;;;18.20;58.60;18.20;99961.00;;;;5029409;28;20847;-39
2021/12/29 09:49:58;;;;;;;1.70;1.50;;;18.30;58.30;18.30;99945.00;;;;5011487;28;20175;-39
2021/12/29 09:52:26;;;;;;;3.03;1.37;;;18.40;58.10;18.40;99951.00;;;;5029415;28;20230;-40
2021/12/29 09:54:51;;;;;;;1.50;1.40;;;18.50;58.20;18.50;99952.00;;;;5029194;28;20278;-40
2021/12/29 09:57:17;;;;;;;1.37;1.27;;;18.60;58.10;18.60;99963.00;;;;5029220;28;20666;-39
2021/12/29 09:59:43;;;;;;;1.60;1.37;;;18.70;58.10;18.70;99970.00;;;;5028754;28;20197;-39
2021/12/29 10:02:08;;;;;;;2.13;1.50;;;18.80;58.00;18.80;99961.00;;;;5028722;28;20183;-39
2021/12/29 10:04:36;;;;;;;2.67;1.50;;;18.80;57.80;18.90;99962.00;;;;5029268;28;20182;-39
2021/12/29 10:07:12;;;;;;;1.30;1.20;;;18.90;58.00;19.00;99961.00;;;;5029013;28;20269;-39
2021/12/29 10:09:37;;;;;;;1.43;1.23;;;18.90;58.50;19.00;99949.00;;;;5041271;28;20187;-39
2021/12/29 10:12:09;;;;;;;2.93;1.47;;;18.90;58.50;19.10;99954.00;;;;5049131;28;20187;-38
2021/12/29 10:14:34;;;;;;;4.47;1.57;;;18.90;58.60;19.20;99952.00;;;;5049007;28;20293;-38
2021/12/29 10:17:00;;;;;;;3.33;1.50;;;19.00;58.50;19.20;99952.00;;;;5048886;28;20214;-39
2021/12/29 10:19:26;;;;;;;3.07;1.60;;;19.00;58.60;19.20;99936.00;;;;5048204;28;20713;-39
2021/12/29 10:21:52;;;;;;;2.90;1.20;;;19.00;58.60;19.30;99944.00;;;;5048678;28;20514;-40
2021/12/29 10:24:19;;;;;;;1.50;1.30;;;19.00;58.60;19.30;99932.00;;;;5048259;28;20177;-40
2021/12/29 10:26:47;;;;;;;1.50;1.27;;;18.90;58.60;19.30;99937.00;;;;5048813;28;20201;-39
2021/12/29 10:29:16;;;;;;;2.37;1.40;;;18.90;58.60;19.30;99868.00;;;;5051544;28;20185;-40
2021/12/29 10:32:04;;;;;;;1.80;1.50;;;18.90;58.70;19.30;99919.00;;;;5056589;28;20558;-44
2021/12/29 10:34:30;;;;;;;1.37;1.27;;;18.80;58.80;19.30;99920.00;;;;5059532;28;20217;-39
2021/12/29 10:37:08;;;;;;;1.93;1.40;;;18.80;59.00;19.30;99923.00;;;;5049075;28;20228;-39
2021/12/29 10:39:39;;;;;;;1.30;1.20;;;18.80;59.00;19.30;99919.00;;;;5049032;28;20181;-39
2021/12/29 10:42:20;;;;;;;3.17;1.43;;;18.80;59.00;19.30;99922.00;;;;5049580;28;20182;-38
2021/12/29 10:44:59;;;;;;;0.93;0.90;;;18.70;59.30;19.30;99922.00;;;;5050398;28;20743;-38
2021/12/29 10:47:29;;;;;;;2.10;1.60;;;18.70;59.50;19.30;99930.00;;;;5048240;28;20160;-39
2021/12/29 10:50:10;;;;;;;2.70;1.50;;;18.70;59.50;19.30;99920.00;;;;5048388;28;20631;-38
2021/12/29 10:53:07;;;;;;;2.37;1.40;;;18.70;59.60;19.30;99920.00;;;;5048515;28;20249;-39
2021/12/29 10:55:36;;;;;;;1.83;1.50;;;18.70;59.60;19.30;99918.00;;;;5047375;28;20729;-39
2021/12/29 10:58:10;;;;;;;1.43;1.33;;;18.60;59.60;19.30;99915.00;;;;5048250;28;20183;-39
2021/12/29 11:00:38;;;;;;;1.90;1.50;;;18.60;59.70;19.30;99907.00;;;;5048043;28;20553;-39